This is the latest recevied weather packets stored in our database for station/object SQ9MHX-13. If no packets are shown the sender has not sent any weather packets the latest 10 day(s).
| Time | Temp. | Humidity | Pressure | Rain* | Wind** | Luminosity | Snow |
|---|---|---|---|---|---|---|---|
| 1777856132 | 10° C | 61% | 973.5 hPa | - | 0 m/s | - | - |
| 1777855833 | 10° C | 61% | 974.2 hPa | - | 0 m/s | - | - |
| 1777855237 | 10° C | 62% | 973.6 hPa | - | 0 m/s | - | - |
| 1777854938 | 10° C | 61% | 972.9 hPa | - | 0 m/s | - | - |
| 1777854640 | 10° C | 60% | 972.5 hPa | - | 0 m/s | - | - |
| 1777854342 | 10° C | 60% | 972.8 hPa | - | 0 m/s | - | - |
| 1777854043 | 10° C | 63% | 973.4 hPa | - | 0 m/s | - | - |
| 1777853745 | 10° C | 61% | 972 hPa | - | 0 m/s | - | - |
| 1777853446 | 12.22° C | 55% | 970.4 hPa | - | 0 m/s | - | - |
| 1777853148 | 12.22° C | 54% | 970.2 hPa | - | 0 m/s | - | - |
| 1777852551 | 12.22° C | 53% | 969.8 hPa | - | 0 m/s | - | - |
| 1777852252 | 12.22° C | 54% | 969.8 hPa | - | 0 m/s | - | - |
| 1777851954 | 12.22° C | 54% | 970 hPa | - | 0 m/s | - | - |
| 1777851655 | 12.22° C | 56% | 970.2 hPa | - | 0 m/s | - | - |
| 1777851357 | 12.22° C | 58% | 970.7 hPa | - | 0 m/s | - | - |
| 1777851058 | 11.11° C | 60% | 971 hPa | - | 0 m/s | - | - |
| 1777850760 | 11.11° C | 64% | 972.3 hPa | - | 0 m/s | - | - |
| 1777850462 | 10° C | 66% | 972.7 hPa | - | 0 m/s | - | - |
| 1777850163 | 10° C | 71% | 974.1 hPa | - | 0 m/s | - | - |
| 1777849865 | 8.89° C | 72% | 974.5 hPa | - | 0 m/s | - | - |
| 1777849567 | 8.89° C | 73% | 973.8 hPa | - | 0 m/s | - | - |
| 1777849268 | 10° C | 65% | 972.3 hPa | - | 0 m/s | - | - |
| 1777848970 | 11.11° C | 64% | 971.9 hPa | - | 0 m/s | - | - |
| 1777848671 | 11.11° C | 64% | 972.1 hPa | - | 0 m/s | - | - |
| 1777848074 | 11.11° C | 63% | 972.3 hPa | - | 0 m/s | - | - |
* Rain since midnight (hover to see other rain measurements)
** Current wind speed in m/s (hover to see current wind gust speed)